createdAt,value
2018-04-01T00:00:29.143Z,59.68
2018-04-01T00:02:56.200Z,59.66
2018-04-01T00:05:23.212Z,59.60
2018-04-01T00:07:50.550Z,59.63
2018-04-01T00:10:18.115Z,59.62
2018-04-01T00:12:45.144Z,59.53
2018-04-01T00:15:12.220Z,59.39
2018-04-01T00:17:39.241Z,59.38
2018-04-01T00:20:06.429Z,59.44
2018-04-01T00:22:33.871Z,59.55
2018-04-01T00:25:00.909Z,59.34
2018-04-01T00:27:28.330Z,59.34
2018-04-01T00:29:55.361Z,59.33
2018-04-01T00:32:22.734Z,59.39
2018-04-01T00:34:50.085Z,59.41
2018-04-01T00:37:17.149Z,59.45
2018-04-01T00:39:44.144Z,59.52
2018-04-01T00:42:11.572Z,59.54
2018-04-01T00:44:39.270Z,58.94
2018-04-01T00:47:06.877Z,59.22
2018-04-01T00:49:33.896Z,59.04
2018-04-01T00:52:01.301Z,59.43
2018-04-01T00:54:28.317Z,59.24
2018-04-01T00:56:55.395Z,59.34
2018-04-01T00:59:22.412Z,59.29
2018-04-01T01:01:49.424Z,59.12
2018-04-01T01:04:16.480Z,58.46
2018-04-01T01:06:43.848Z,57.56
2018-04-01T01:09:10.864Z,58.16
2018-04-01T01:11:37.938Z,58.42
2018-04-01T01:14:04.956Z,57.84
2018-04-01T01:16:32.038Z,58.04
2018-04-01T01:18:59.111Z,58.08
2018-04-01T01:21:26.125Z,58.61
2018-04-01T01:23:53.356Z,58.87
2018-04-01T01:26:20.387Z,59.19
2018-04-01T01:28:47.452Z,59.10
2018-04-01T01:31:14.520Z,58.89
2018-04-01T01:33:41.552Z,59.06
2018-04-01T01:36:08.843Z,58.89
2018-04-01T01:38:36.157Z,59.26
2018-04-01T01:41:03.283Z,59.63
2018-04-01T01:43:30.853Z,59.49
2018-04-01T01:45:57.876Z,59.41
2018-04-01T01:48:25.220Z,59.74
2018-04-01T01:50:52.232Z,59.89
2018-04-01T01:53:19.391Z,59.79
2018-04-01T01:55:46.999Z,59.60
2018-04-01T01:58:14.533Z,59.43
2018-04-01T02:00:41.552Z,59.42
2018-04-01T02:03:08.608Z,59.57
2018-04-01T02:05:36.360Z,59.47
2018-04-01T02:08:03.368Z,59.68
2018-04-01T02:10:30.438Z,59.99
2018-04-01T02:12:57.752Z,60.07
2018-04-01T02:15:24.828Z,60.10
2018-04-01T02:17:51.853Z,59.95
2018-04-01T02:20:19.500Z,60.42
2018-04-01T02:22:47.087Z,60.30
2018-04-01T02:25:14.850Z,60.07
2018-04-01T02:27:42.921Z,60.24
2018-04-01T02:30:10.884Z,60.17
2018-04-01T02:32:37.957Z,60.02
2018-04-01T02:35:05.545Z,59.71
2018-04-01T02:37:32.569Z,59.49
2018-04-01T02:40:00.077Z,59.48
2018-04-01T02:42:27.096Z,59.44
2018-04-01T02:44:54.663Z,59.47
2018-04-01T02:47:22.266Z,59.49
2018-04-01T02:49:49.541Z,59.46
2018-04-01T02:52:16.604Z,59.38
2018-04-01T02:54:43.620Z,59.33
2018-04-01T02:57:11.012Z,59.28
2018-04-01T02:59:38.086Z,59.32
2018-04-01T03:02:05.495Z,59.44
2018-04-01T03:04:32.591Z,59.37
2018-04-01T03:06:59.596Z,60.28
2018-04-01T03:09:26.675Z,60.61
2018-04-01T03:11:53.708Z,60.84
2018-04-01T03:14:20.731Z,60.64
2018-04-01T03:16:47.820Z,60.99
2018-04-01T03:19:15.353Z,60.80
2018-04-01T03:21:42.368Z,61.25
2018-04-01T03:24:09.985Z,61.72
2018-04-01T03:26:37.005Z,61.76
2018-04-01T03:29:04.076Z,61.55
2018-04-01T03:31:31.933Z,61.61
2018-04-01T03:33:59.268Z,61.86
2018-04-01T03:36:26.614Z,61.88
2018-04-01T03:38:53.664Z,61.81
2018-04-01T03:41:20.678Z,61.66
2018-04-01T03:43:48.236Z,62.16
2018-04-01T03:46:15.737Z,62.36
2018-04-01T03:48:43.318Z,62.46
2018-04-01T03:51:10.380Z,62.59
2018-04-01T03:53:37.392Z,62.56
2018-04-01T03:56:04.626Z,62.49
2018-04-01T03:58:31.656Z,62.81
2018-04-01T04:00:59.203Z,62.47
2018-04-01T04:03:26.503Z,62.15
2018-04-01T04:05:54.022Z,63.04
2018-04-01T04:08:21.128Z,63.04
2018-04-01T04:10:48.448Z,62.50
2018-04-01T04:13:15.520Z,62.23
2018-04-01T04:15:42.553Z,62.02
2018-04-01T04:18:10.007Z,61.77
2018-04-01T04:20:37.925Z,61.60
2018-04-01T04:23:04.947Z,61.44
2018-04-01T04:25:33.462Z,61.28
2018-04-01T04:28:00.485Z,61.20
2018-04-01T04:30:27.584Z,61.06
2018-04-01T04:32:54.637Z,60.91
2018-04-01T04:35:22.025Z,60.78
2018-04-01T04:37:49.041Z,61.93
2018-04-01T04:40:17.280Z,62.57
2018-04-01T04:42:44.307Z,61.62
2018-04-01T04:45:11.775Z,61.00
2018-04-01T04:47:39.598Z,60.83
2018-04-01T04:50:06.954Z,61.33
2018-04-01T04:52:34.016Z,60.98
2018-04-01T04:55:01.089Z,60.87
2018-04-01T04:57:28.456Z,60.49
2018-04-01T04:59:55.823Z,60.75
2018-04-01T05:02:22.888Z,59.27
2018-04-01T05:04:50.806Z,56.67
2018-04-01T05:07:17.871Z,54.21
2018-04-01T05:09:45.212Z,52.52
2018-04-01T05:12:12.952Z,50.17
2018-04-01T05:14:40.412Z,48.43
2018-04-01T05:17:07.438Z,47.61
2018-04-01T05:19:35.295Z,48.37
2018-04-01T05:22:02.565Z,47.24
2018-04-01T05:24:30.131Z,50.35
2018-04-01T05:26:57.672Z,51.68
2018-04-01T05:29:24.868Z,51.51
2018-04-01T05:31:52.504Z,52.03
2018-04-01T05:34:19.940Z,52.83
2018-04-01T05:36:46.996Z,53.60
2018-04-01T05:39:14.065Z,54.12
2018-04-01T05:41:41.087Z,54.36
2018-04-01T05:44:08.198Z,54.05
2018-04-01T05:46:35.798Z,53.93
2018-04-01T05:49:03.094Z,52.95
2018-04-01T05:51:30.424Z,50.51
2018-04-01T05:53:58.570Z,48.50
2018-04-01T05:56:26.001Z,47.34
2018-04-01T05:58:53.518Z,46.17
2018-04-01T06:01:21.043Z,45.29
2018-04-01T06:03:48.860Z,44.18
2018-04-01T06:06:16.996Z,44.78
2018-04-01T06:08:44.380Z,46.25
2018-04-01T06:11:11.632Z,49.20
2018-04-01T06:13:38.666Z,49.71
2018-04-01T06:16:05.733Z,50.55
2018-04-01T06:18:33.129Z,51.81
2018-04-01T06:21:00.460Z,54.22
2018-04-01T06:23:28.305Z,54.42
2018-04-01T06:25:55.372Z,54.74
2018-04-01T06:28:22.606Z,55.17
2018-04-01T06:30:49.672Z,56.82
2018-04-01T06:33:17.724Z,57.26
2018-04-01T06:35:44.852Z,57.02
2018-04-01T06:38:12.254Z,57.78
2018-04-01T06:40:39.883Z,58.57
2018-04-01T06:43:07.649Z,58.60
2018-04-01T06:45:35.069Z,58.38
2018-04-01T06:48:02.085Z,58.50
2018-04-01T06:50:29.423Z,59.20
2018-04-01T06:52:57.405Z,60.60
2018-04-01T06:55:24.856Z,62.74
2018-04-01T06:57:52.040Z,63.14
2018-04-01T07:00:19.096Z,64.36
2018-04-01T07:02:46.152Z,64.31
2018-04-01T07:05:13.540Z,64.18
2018-04-01T07:07:40.596Z,62.90
2018-04-01T07:10:07.612Z,63.55
2018-04-01T07:12:34.675Z,63.06
2018-04-01T07:15:02.433Z,62.89
2018-04-01T07:17:30.568Z,62.90
2018-04-01T07:19:57.639Z,63.21
2018-04-01T07:22:26.023Z,62.44
2018-04-01T07:24:53.679Z,61.94
2018-04-01T07:27:21.004Z,61.82
2018-04-01T07:29:48.601Z,61.65
2018-04-01T07:32:17.444Z,61.72
2018-04-01T07:34:45.157Z,62.02
2018-04-01T07:37:13.226Z,62.21
2018-04-01T07:39:40.747Z,61.84
2018-04-01T07:42:09.660Z,61.62
2018-04-01T07:44:36.700Z,61.33
2018-04-01T07:47:03.727Z,60.75
2018-04-01T07:49:31.124Z,60.99
2018-04-01T07:51:58.155Z,61.12
2018-04-01T07:54:25.422Z,60.42
2018-04-01T07:56:52.492Z,59.82
2018-04-01T07:59:19.684Z,59.89
2018-04-01T08:01:48.424Z,59.43
2018-04-01T08:04:15.935Z,58.75
2018-04-01T08:06:42.948Z,57.91
2018-04-01T08:09:10.784Z,58.27
2018-04-01T08:11:38.098Z,57.87
2018-04-01T08:14:06.144Z,57.39
2018-04-01T08:16:33.161Z,57.17
2018-04-01T08:19:00.181Z,56.78
2018-04-01T08:21:27.941Z,56.39
2018-04-01T08:23:55.099Z,56.75
2018-04-01T08:26:23.220Z,55.04
2018-04-01T08:28:50.266Z,54.38
2018-04-01T08:31:19.173Z,54.95
2018-04-01T08:33:47.173Z,53.21
2018-04-01T08:36:15.868Z,53.65
2018-04-01T08:38:42.920Z,53.03
2018-04-01T08:41:10.665Z,52.80
2018-04-01T08:43:37.875Z,52.54
2018-04-01T08:46:05.277Z,52.11
2018-04-01T08:48:32.356Z,51.90
2018-04-01T08:50:59.381Z,51.50
2018-04-01T08:53:26.864Z,51.48
2018-04-01T08:55:54.159Z,50.61
2018-04-01T08:58:21.228Z,50.54
2018-04-01T09:00:49.767Z,50.02
2018-04-01T09:03:16.844Z,49.13
2018-04-01T09:05:44.698Z,49.25
2018-04-01T09:08:11.773Z,49.44
2018-04-01T09:10:40.430Z,49.40
2018-04-01T09:13:07.466Z,49.54
2018-04-01T09:15:34.525Z,49.99
2018-04-01T09:18:01.549Z,50.17
2018-04-01T09:20:29.047Z,49.36
2018-04-01T09:22:56.751Z,49.00
2018-04-01T09:25:24.325Z,49.08
2018-04-01T09:27:51.407Z,50.15
2018-04-01T09:30:19.349Z,49.89
2018-04-01T09:32:46.637Z,48.22
2018-04-01T09:35:14.212Z,47.14
2018-04-01T09:37:42.887Z,48.45
2018-04-01T09:40:09.904Z,48.08
2018-04-01T09:42:37.185Z,47.62
2018-04-01T09:45:05.152Z,47.74
2018-04-01T09:47:32.419Z,47.55
2018-04-01T09:49:59.587Z,47.14
2018-04-01T09:52:26.997Z,47.71
2018-04-01T09:54:54.499Z,47.61
2018-04-01T09:57:22.082Z,47.23
2018-04-01T09:59:49.092Z,47.76
2018-04-01T10:02:16.680Z,47.96
2018-04-01T10:04:46.204Z,46.68
2018-04-01T10:07:14.568Z,46.99
2018-04-01T10:09:42.901Z,45.08
2018-04-01T10:12:11.320Z,44.80
2018-04-01T10:14:39.350Z,45.07
2018-04-01T10:17:06.895Z,45.91
2018-04-01T10:19:34.924Z,44.94
2018-04-01T10:22:03.272Z,45.27
2018-04-01T10:24:30.860Z,44.93
2018-04-01T10:26:58.611Z,45.33
2018-04-01T10:29:26.713Z,46.25
2018-04-01T10:31:54.260Z,44.97
2018-04-01T10:34:21.820Z,45.10
2018-04-01T10:36:49.960Z,44.71
2018-04-01T10:39:17.512Z,45.15
2018-04-01T10:41:45.108Z,45.83
2018-04-01T10:44:13.308Z,45.93
2018-04-01T10:46:41.745Z,46.38
2018-04-01T10:49:09.301Z,47.19
2018-04-01T10:51:37.676Z,47.21
2018-04-01T10:54:05.068Z,46.86
2018-04-01T10:56:32.561Z,46.30
2018-04-01T10:58:59.652Z,46.62
2018-04-01T11:01:29.930Z,45.62
2018-04-01T11:03:57.269Z,45.23
2018-04-01T11:06:26.327Z,45.04
2018-04-01T11:08:57.789Z,44.99
2018-04-01T11:11:24.877Z,44.22
2018-04-01T11:13:52.322Z,43.42
2018-04-01T11:16:19.837Z,42.61
2018-04-01T11:18:46.897Z,42.38
2018-04-01T11:21:13.910Z,42.11
2018-04-01T11:23:40.956Z,41.76
2018-04-01T11:26:07.969Z,41.25
2018-04-01T11:28:35.417Z,40.22
2018-04-01T11:31:02.957Z,40.31
2018-04-01T11:33:30.033Z,40.78
2018-04-01T11:35:57.665Z,40.85
2018-04-01T11:38:24.676Z,40.55
2018-04-01T11:40:51.700Z,40.61
2018-04-01T11:43:19.076Z,40.30
2018-04-01T11:45:46.403Z,40.53
2018-04-01T11:48:13.480Z,40.85
2018-04-01T11:50:41.548Z,40.79
2018-04-01T11:53:09.288Z,40.87
2018-04-01T11:55:37.672Z,40.54
2018-04-01T11:58:04.724Z,40.24
2018-04-01T12:00:31.736Z,40.53
2018-04-01T12:02:59.750Z,40.55
2018-04-01T12:05:26.780Z,39.59
2018-04-01T12:07:55.718Z,38.85
2018-04-01T12:10:23.009Z,38.09
2018-04-01T12:12:50.091Z,38.36
2018-04-01T12:15:17.721Z,37.66
2018-04-01T12:17:44.732Z,37.82
2018-04-01T12:20:12.425Z,37.25
2018-04-01T12:22:39.448Z,37.25
2018-04-01T12:25:07.883Z,37.36
2018-04-01T12:27:36.199Z,37.81
2018-04-01T12:30:03.227Z,37.63
2018-04-01T12:32:31.354Z,37.51
2018-04-01T12:34:58.994Z,37.40
2018-04-01T12:37:27.803Z,37.42
2018-04-01T12:39:55.516Z,37.34
2018-04-01T12:42:22.708Z,36.43
2018-04-01T12:44:50.658Z,36.65
2018-04-01T12:47:17.729Z,36.82
2018-04-01T12:49:44.762Z,37.17
2018-04-01T12:52:11.829Z,36.56
2018-04-01T12:54:40.996Z,36.84
2018-04-01T12:57:08.013Z,36.12
2018-04-01T12:59:35.834Z,36.08
2018-04-01T13:02:02.845Z,36.46
2018-04-01T13:04:30.424Z,36.53
2018-04-01T13:06:57.436Z,36.75
2018-04-01T13:09:25.044Z,36.08
2018-04-01T13:11:52.052Z,36.16
2018-04-01T13:14:19.473Z,36.48
2018-04-01T13:16:46.548Z,36.86
2018-04-01T13:19:14.498Z,36.76
2018-04-01T13:21:41.893Z,36.22
2018-04-01T13:24:09.006Z,37.34
2018-04-01T13:26:36.478Z,37.53
2018-04-01T13:29:03.536Z,37.55
2018-04-01T13:31:31.850Z,37.50
2018-04-01T13:33:58.920Z,37.65
2018-04-01T13:36:28.591Z,38.07
2018-04-01T13:38:55.649Z,38.07
2018-04-01T13:41:23.216Z,38.39
2018-04-01T13:43:50.256Z,38.96
2018-04-01T13:46:18.013Z,39.38
2018-04-01T13:48:45.056Z,39.66
2018-04-01T13:51:12.121Z,40.61
2018-04-01T13:53:41.072Z,40.47
2018-04-01T13:56:08.309Z,40.59
2018-04-01T13:58:36.890Z,41.58
2018-04-01T14:01:04.448Z,41.78
2018-04-01T14:03:31.956Z,42.11
2018-04-01T14:05:59.029Z,42.42
2018-04-01T14:08:26.945Z,42.48
2018-04-01T14:10:54.030Z,42.42
2018-04-01T14:13:22.777Z,42.05
2018-04-01T14:15:50.769Z,41.92
2018-04-01T14:18:18.707Z,41.85
2018-04-01T14:20:46.587Z,42.07
2018-04-01T14:23:13.560Z,42.39
2018-04-01T14:25:40.981Z,42.60
2018-04-01T14:28:08.422Z,42.44
2018-04-01T14:30:36.333Z,43.01
2018-04-01T14:33:04.278Z,43.69
2018-04-01T14:35:31.335Z,43.95
2018-04-01T14:37:58.356Z,43.85
2018-04-01T14:40:27.479Z,44.60
2018-04-01T14:42:55.092Z,44.77
2018-04-01T14:45:23.224Z,44.90
2018-04-01T14:47:50.363Z,45.02
2018-04-01T14:50:17.529Z,45.49
2018-04-01T14:52:44.605Z,45.72
2018-04-01T14:55:11.819Z,45.57
2018-04-01T14:57:38.886Z,45.49
2018-04-01T15:00:06.417Z,45.37
2018-04-01T15:02:33.860Z,45.42
2018-04-01T15:05:00.965Z,45.44
2018-04-01T15:07:27.976Z,45.43
2018-04-01T15:09:57.166Z,46.58
2018-04-01T15:12:24.592Z,46.89
2018-04-01T15:14:52.108Z,47.08
2018-04-01T15:17:19.132Z,48.31
2018-04-01T15:19:46.160Z,48.66
2018-04-01T15:22:14.175Z,48.41
2018-04-01T15:24:41.192Z,48.75
2018-04-01T15:27:08.506Z,49.16
2018-04-01T15:29:35.520Z,49.10
2018-04-01T15:32:03.484Z,49.85
2018-04-01T15:34:30.509Z,49.79
2018-04-01T15:36:58.115Z,49.65
2018-04-01T15:39:25.389Z,49.97
2018-04-01T15:41:52.426Z,50.37
2018-04-01T15:44:20.948Z,50.40
2018-04-01T15:46:48.049Z,50.38
2018-04-01T15:49:15.993Z,50.57
2018-04-01T15:51:43.175Z,50.51
2018-04-01T15:54:10.431Z,50.57
2018-04-01T15:56:38.771Z,50.28
2018-04-01T15:59:06.541Z,50.41
2018-04-01T16:01:33.625Z,50.24
2018-04-01T16:04:01.524Z,49.30
2018-04-01T16:06:28.944Z,49.68
2018-04-01T16:08:55.956Z,50.17
2018-04-01T16:11:23.737Z,50.89
2018-04-01T16:13:51.400Z,51.50
2018-04-01T16:16:18.993Z,52.36
2018-04-01T16:18:46.052Z,52.31
2018-04-01T16:21:13.090Z,52.75
2018-04-01T16:23:41.791Z,54.06
2018-04-01T16:26:09.213Z,54.34
2018-04-01T16:28:36.237Z,53.96
2018-04-01T16:31:03.252Z,55.14
2018-04-01T16:33:31.982Z,54.63
2018-04-01T16:35:59.995Z,54.26
2018-04-01T16:38:27.008Z,53.88
2018-04-01T16:40:54.132Z,53.49
2018-04-01T16:43:21.751Z,53.07
2018-04-01T16:45:48.764Z,52.67
2018-04-01T16:48:15.829Z,52.29
2018-04-01T16:50:43.338Z,52.20
2018-04-01T16:53:10.647Z,51.58
2018-04-01T16:55:37.706Z,51.16
2018-04-01T16:58:04.769Z,50.94
2018-04-01T17:00:32.273Z,50.77
2018-04-01T17:02:59.867Z,50.73
2018-04-01T17:05:27.482Z,50.77
2018-04-01T17:07:55.087Z,50.72
2018-04-01T17:10:22.164Z,51.45
2018-04-01T17:12:49.455Z,51.64
2018-04-01T17:15:16.528Z,51.78
2018-04-01T17:17:43.545Z,52.37
2018-04-01T17:20:11.027Z,52.24
2018-04-01T17:22:38.054Z,52.69
2018-04-01T17:25:05.094Z,52.50
2018-04-01T17:27:32.156Z,52.68
2018-04-01T17:29:59.199Z,52.55
2018-04-01T17:32:26.316Z,52.30
2018-04-01T17:34:53.624Z,52.19
2018-04-01T17:37:21.066Z,52.25
2018-04-01T17:39:48.448Z,52.24
2018-04-01T17:42:15.462Z,52.10
2018-04-01T17:44:43.248Z,51.92
2018-04-01T17:47:10.317Z,51.67
2018-04-01T17:49:37.745Z,51.62
2018-04-01T17:52:04.816Z,51.76
2018-04-01T17:54:31.825Z,51.88
2018-04-01T17:56:58.938Z,52.20
2018-04-01T17:59:26.404Z,52.25
2018-04-01T18:01:54.857Z,51.80
2018-04-01T18:04:21.877Z,51.38
2018-04-01T18:06:49.132Z,51.22
2018-04-01T18:09:16.943Z,50.94
2018-04-01T18:11:45.160Z,51.02
2018-04-01T18:14:13.649Z,50.82
2018-04-01T18:16:41.132Z,50.70
2018-04-01T18:19:08.184Z,50.74
2018-04-01T18:21:35.545Z,50.55
2018-04-01T18:24:03.012Z,50.40
2018-04-01T18:26:30.477Z,50.24
2018-04-01T18:28:57.502Z,50.07
2018-04-01T18:31:25.384Z,50.10
2018-04-01T18:33:52.407Z,50.03
2018-04-01T18:36:20.148Z,49.64
2018-04-01T18:38:47.592Z,49.49
2018-04-01T18:41:14.895Z,49.36
2018-04-01T18:43:42.028Z,49.40
2018-04-01T18:46:09.110Z,49.40
2018-04-01T18:48:36.812Z,49.35
2018-04-01T18:51:04.629Z,49.40
2018-04-01T18:53:31.695Z,49.31
2018-04-01T18:55:58.716Z,49.42
2018-04-01T18:58:25.802Z,49.47
2018-04-01T19:00:52.937Z,49.57
2018-04-01T19:03:20.025Z,49.66
2018-04-01T19:05:47.820Z,49.63
2018-04-01T19:08:14.834Z,49.67
2018-04-01T19:10:41.909Z,49.60
2018-04-01T19:13:10.280Z,49.66
2018-04-01T19:15:37.351Z,49.69
2018-04-01T19:18:05.540Z,49.85
2018-04-01T19:20:33.100Z,49.77
2018-04-01T19:23:00.705Z,49.80
2018-04-01T19:25:28.281Z,49.82
2018-04-01T19:27:55.893Z,49.92
2018-04-01T19:30:23.440Z,49.88
2018-04-01T19:32:51.009Z,49.80
2018-04-01T19:35:18.813Z,50.16
2018-04-01T19:37:46.809Z,50.31
2018-04-01T19:40:14.425Z,50.30
2018-04-01T19:42:42.028Z,50.25
2018-04-01T19:45:09.580Z,49.75
2018-04-01T19:47:37.459Z,50.17
2018-04-01T19:50:05.048Z,50.41
2018-04-01T19:52:32.669Z,50.64
2018-04-01T19:55:00.621Z,50.42
2018-04-01T19:57:28.222Z,50.57
2018-04-01T19:59:57.046Z,50.40
2018-04-01T20:02:24.995Z,50.64
2018-04-01T20:04:54.440Z,50.67
2018-04-01T20:07:22.029Z,50.78
2018-04-01T20:09:49.914Z,50.78
2018-04-01T20:12:17.464Z,51.21
2018-04-01T20:14:45.080Z,51.71
2018-04-01T20:17:12.742Z,51.52
2018-04-01T20:19:41.478Z,51.27
2018-04-01T20:22:09.683Z,50.80
2018-04-01T20:24:37.236Z,50.69
2018-04-01T20:27:05.525Z,50.60
2018-04-01T20:29:33.100Z,50.55
2018-04-01T20:32:01.610Z,50.49
2018-04-01T20:34:29.797Z,50.38
2018-04-01T20:36:57.352Z,50.40
2018-04-01T20:39:25.356Z,50.38
2018-04-01T20:41:52.972Z,50.35
2018-04-01T20:44:20.560Z,50.39
2018-04-01T20:46:49.192Z,50.34
2018-04-01T20:49:17.508Z,50.30
2018-04-01T20:51:45.069Z,50.36
2018-04-01T20:54:12.692Z,50.41
2018-04-01T20:56:40.672Z,50.53
2018-04-01T20:59:08.577Z,50.50
2018-04-01T21:01:37.028Z,50.36
2018-04-01T21:04:05.612Z,50.44
2018-04-01T21:06:33.186Z,50.40
2018-04-01T21:09:01.369Z,50.43
2018-04-01T21:11:29.309Z,50.60
2018-04-01T21:13:58.256Z,50.49
2018-04-01T21:16:25.805Z,50.62
2018-04-01T21:18:53.400Z,50.63
2018-04-01T21:21:20.961Z,50.61
2018-04-01T21:23:48.580Z,50.59
2018-04-01T21:26:16.135Z,50.70
2018-04-01T21:28:43.702Z,50.68
2018-04-01T21:31:11.260Z,50.40
2018-04-01T21:33:38.864Z,50.38
2018-04-01T21:36:06.471Z,50.23
2018-04-01T21:38:34.040Z,50.13
2018-04-01T21:41:01.634Z,50.18
2018-04-01T21:43:30.128Z,50.19
2018-04-01T21:45:57.716Z,50.07
2018-04-01T21:48:25.270Z,50.07
2018-04-01T21:50:53.481Z,49.92
2018-04-01T21:53:21.193Z,49.83
2018-04-01T21:55:49.146Z,49.86
2018-04-01T21:58:16.748Z,49.80
2018-04-01T22:00:44.301Z,49.46
2018-04-01T22:03:12.604Z,49.43
2018-04-01T22:05:40.673Z,49.33
2018-04-01T22:08:08.224Z,49.37
2018-04-01T22:10:35.784Z,49.25
2018-04-01T22:13:03.372Z,49.48
2018-04-01T22:15:30.922Z,49.34
2018-04-01T22:17:58.529Z,49.28
2018-04-01T22:20:26.475Z,49.00
2018-04-01T22:23:06.289Z,49.13
2018-04-01T22:25:33.835Z,49.08
2018-04-01T22:28:01.440Z,48.96
2018-04-01T22:30:28.991Z,48.88
2018-04-01T22:32:57.136Z,48.79
2018-04-01T22:35:24.679Z,48.87
2018-04-01T22:37:52.660Z,48.90
2018-04-01T22:40:20.269Z,48.79
2018-04-01T22:42:48.498Z,48.74
2018-04-01T22:45:16.919Z,48.84
2018-04-01T22:47:44.483Z,48.86
2018-04-01T22:50:12.087Z,48.63
2018-04-01T22:52:39.705Z,48.81
2018-04-01T22:55:07.252Z,48.84
2018-04-01T22:57:35.335Z,48.87
2018-04-01T23:00:02.953Z,48.85
2018-04-01T23:02:30.500Z,48.71
2018-04-01T23:04:58.045Z,48.66
2018-04-01T23:07:25.724Z,48.05
2018-04-01T23:09:53.789Z,48.70
2018-04-01T23:12:21.343Z,48.89
2018-04-01T23:14:49.171Z,48.73
2018-04-01T23:17:17.180Z,48.81
2018-04-01T23:19:45.752Z,48.80
2018-04-01T23:22:14.323Z,48.72
2018-04-01T23:24:42.088Z,48.80
2018-04-01T23:27:09.696Z,48.76
2018-04-01T23:29:37.676Z,48.73
2018-04-01T23:32:05.780Z,48.79
2018-04-01T23:34:34.224Z,48.77
2018-04-01T23:37:01.831Z,48.77
2018-04-01T23:39:29.445Z,48.79
2018-04-01T23:41:57.253Z,48.79
2018-04-01T23:44:24.814Z,48.81
2018-04-01T23:46:52.417Z,48.60
2018-04-01T23:49:20.555Z,48.64
2018-04-01T23:51:48.481Z,48.77
2018-04-01T23:54:16.031Z,48.71
2018-04-01T23:56:43.624Z,48.67
2018-04-01T23:59:11.943Z,48.73
